createdAt,value
2024-03-22T00:00:52.065Z,1314.00
2024-03-22T00:01:52.132Z,1343.00
2024-03-22T00:02:52.170Z,1323.00
2024-03-22T00:03:52.228Z,1307.00
2024-03-22T00:04:52.285Z,1300.00
2024-03-22T00:58:05.495Z,1318.00
2024-03-22T00:58:53.882Z,1369.00
2024-03-22T00:59:53.906Z,1562.00
2024-03-22T01:00:53.944Z,1813.00
2024-03-22T01:01:53.979Z,2088.00
2024-03-22T01:02:54.012Z,2370.00
2024-03-22T01:03:54.055Z,2323.00
2024-03-22T01:04:54.100Z,2183.00
2024-03-22T01:05:54.134Z,2041.00
2024-03-22T01:06:54.177Z,1944.00
2024-03-22T01:07:54.207Z,1892.00
2024-03-22T01:08:54.256Z,1856.00
2024-03-22T01:09:54.283Z,1782.00
2024-03-22T01:10:54.330Z,1698.00
2024-03-22T01:12:05.459Z,600.00
2024-03-22T01:13:06.438Z,600.00
2024-03-22T01:14:06.474Z,600.00
2024-03-22T01:15:06.438Z,600.00
2024-03-22T01:16:06.426Z,600.00
2024-03-22T01:17:06.432Z,600.00
2024-03-22T01:18:06.424Z,600.00
2024-03-22T01:19:06.444Z,600.00
2024-03-22T01:20:06.411Z,600.00
2024-03-22T01:21:06.417Z,604.00
2024-03-22T01:22:06.429Z,607.00
2024-03-22T01:23:06.427Z,614.00
2024-03-22T01:24:06.428Z,621.00
2024-03-22T01:25:06.429Z,626.00
2024-03-22T01:26:06.422Z,624.00
2024-03-22T01:27:06.425Z,625.00
2024-03-22T01:28:06.440Z,632.00
2024-03-22T01:29:06.412Z,634.00
2024-03-22T01:30:06.424Z,642.00
2024-03-22T01:31:06.429Z,644.00
2024-03-22T01:32:06.403Z,646.00
2024-03-22T01:33:06.404Z,645.00
2024-03-22T01:34:06.415Z,643.00
2024-03-22T01:35:06.389Z,641.00
2024-03-22T01:36:06.397Z,637.00
2024-03-22T01:37:06.385Z,641.00
2024-03-22T01:38:06.384Z,641.00
2024-03-22T01:39:06.368Z,639.00
2024-03-22T01:40:06.378Z,642.00
2024-03-22T01:41:06.351Z,645.00
2024-03-22T01:42:06.340Z,642.00
2024-03-22T01:43:06.333Z,635.00
2024-03-22T01:44:06.323Z,629.00
2024-03-22T01:45:06.308Z,626.00
2024-03-22T01:46:06.324Z,627.00
2024-03-22T01:47:06.340Z,632.00
2024-03-22T01:48:06.393Z,633.00
2024-03-22T01:49:06.436Z,634.00
2024-03-22T01:50:06.518Z,632.00
2024-03-22T01:51:06.553Z,624.00
2024-03-22T01:52:06.615Z,623.00
2024-03-22T01:53:06.663Z,625.00
2024-03-22T01:54:06.704Z,629.00
2024-03-22T01:55:06.760Z,639.00
2024-03-22T01:56:06.805Z,638.00
2024-03-22T01:57:06.875Z,625.00
2024-03-22T01:58:06.914Z,613.00
2024-03-22T01:59:06.968Z,609.00
2024-03-22T02:00:07.023Z,604.00
2024-03-22T02:01:07.089Z,601.00
2024-03-22T02:02:07.119Z,600.00
2024-03-22T02:03:07.136Z,600.00
2024-03-22T02:04:07.187Z,606.00
2024-03-22T02:05:07.243Z,601.00
2024-03-22T02:06:07.311Z,605.00
2024-03-22T02:07:07.367Z,604.00
2024-03-22T02:08:07.434Z,602.00
2024-03-22T02:09:07.493Z,609.00
2024-03-22T02:10:07.559Z,608.00
2024-03-22T02:11:07.627Z,604.00
2024-03-22T02:12:07.661Z,611.00
2024-03-22T02:13:07.727Z,614.00
2024-03-22T02:14:07.787Z,610.00
2024-03-22T02:15:07.798Z,612.00
2024-03-22T02:16:07.814Z,619.00
2024-03-22T02:17:08.689Z,619.00
2024-03-22T02:18:07.867Z,628.00
2024-03-22T02:19:07.870Z,629.00
2024-03-22T02:20:07.939Z,631.00
2024-03-22T02:21:08.000Z,639.00
2024-03-22T02:22:08.080Z,634.00
2024-03-22T02:23:08.111Z,627.00
2024-03-22T02:24:08.134Z,615.00
2024-03-22T02:25:08.143Z,600.00
2024-03-22T02:26:08.174Z,600.00
2024-03-22T02:27:10.640Z,603.00
2024-03-22T02:28:08.188Z,600.00
2024-03-22T02:29:08.194Z,600.00
2024-03-22T02:30:08.193Z,601.00
2024-03-22T02:31:08.199Z,603.00
2024-03-22T02:32:08.183Z,600.00
2024-03-22T02:33:08.184Z,600.00
2024-03-22T02:34:08.181Z,602.00
2024-03-22T02:35:08.178Z,605.00
2024-03-22T02:36:08.183Z,602.00
2024-03-22T02:37:08.167Z,600.00
2024-03-22T02:38:08.181Z,602.00
2024-03-22T02:39:08.184Z,600.00
2024-03-22T02:40:08.176Z,604.00
2024-03-22T02:41:08.165Z,609.00
2024-03-22T02:42:08.171Z,607.00
2024-03-22T02:43:08.177Z,607.00
2024-03-22T02:44:08.186Z,611.00
2024-03-22T02:45:08.197Z,612.00
2024-03-22T02:46:08.208Z,613.00
2024-03-22T02:47:08.183Z,618.00
2024-03-22T02:48:08.178Z,620.00
2024-03-22T02:49:08.168Z,628.00
2024-03-22T02:50:08.180Z,633.00
2024-03-22T02:51:08.159Z,638.00
2024-03-22T02:52:08.141Z,640.00
2024-03-22T02:53:08.156Z,645.00
2024-03-22T02:54:08.131Z,640.00
2024-03-22T02:55:08.188Z,639.00
2024-03-22T02:56:08.121Z,641.00
2024-03-22T02:57:08.119Z,648.00
2024-03-22T02:58:08.132Z,654.00
2024-03-22T02:59:08.116Z,663.00
2024-03-22T03:00:08.124Z,693.00
2024-03-22T03:01:08.120Z,710.00
2024-03-22T03:02:08.094Z,740.00
2024-03-22T03:03:08.101Z,757.00
2024-03-22T03:04:08.077Z,770.00
2024-03-22T03:05:08.062Z,783.00
2024-03-22T03:06:08.092Z,779.00
2024-03-22T03:07:08.134Z,783.00
2024-03-22T03:08:08.172Z,784.00
2024-03-22T03:09:08.219Z,761.00
2024-03-22T03:10:08.297Z,729.00
2024-03-22T03:11:08.380Z,708.00
2024-03-22T03:12:10.400Z,701.00
2024-03-22T03:13:08.436Z,683.00
2024-03-22T03:14:08.410Z,686.00
2024-03-22T03:15:08.398Z,676.00
2024-03-22T03:16:08.389Z,674.00
2024-03-22T03:17:08.400Z,691.00
2024-03-22T03:18:08.402Z,721.00
2024-03-22T03:19:08.374Z,738.00
2024-03-22T03:20:08.350Z,756.00
2024-03-22T03:21:08.359Z,737.00
2024-03-22T03:22:08.392Z,728.00
2024-03-22T03:23:08.360Z,722.00
2024-03-22T03:24:08.344Z,731.00
2024-03-22T03:25:08.408Z,746.00
2024-03-22T03:26:08.474Z,757.00
2024-03-22T03:27:08.542Z,773.00
2024-03-22T03:28:08.595Z,777.00
2024-03-22T03:29:08.661Z,789.00
2024-03-22T03:30:08.730Z,805.00
2024-03-22T03:31:08.776Z,818.00
2024-03-22T03:32:08.825Z,843.00
2024-03-22T03:33:08.903Z,856.00
2024-03-22T03:34:08.944Z,853.00
2024-03-22T03:35:09.021Z,867.00
2024-03-22T03:36:09.090Z,843.00
2024-03-22T03:37:09.136Z,851.00
2024-03-22T03:38:09.215Z,855.00
2024-03-22T03:39:09.271Z,844.00
2024-03-22T03:40:09.397Z,821.00
2024-03-22T03:41:09.380Z,812.00
2024-03-22T03:42:09.412Z,809.00
2024-03-22T03:43:09.554Z,809.00
2024-03-22T03:44:09.540Z,800.00
2024-03-22T03:45:09.605Z,797.00
2024-03-22T03:46:09.661Z,789.00
2024-03-22T03:47:09.729Z,783.00
2024-03-22T03:48:09.799Z,766.00
2024-03-22T03:49:09.860Z,733.00
2024-03-22T03:50:09.948Z,692.00
2024-03-22T03:51:09.995Z,667.00
2024-03-22T03:52:10.072Z,656.00
2024-03-22T03:53:10.121Z,645.00
2024-03-22T03:54:10.193Z,625.00
2024-03-22T03:55:10.211Z,613.00
2024-03-22T03:56:10.280Z,602.00
2024-03-22T03:57:10.315Z,601.00
2024-03-22T03:58:10.395Z,607.00
2024-03-22T03:59:10.422Z,612.00
2024-03-22T04:00:10.494Z,618.00
2024-03-22T04:01:10.506Z,617.00
2024-03-22T04:02:10.538Z,615.00
2024-03-22T04:03:10.567Z,612.00
2024-03-22T04:04:10.559Z,620.00
2024-03-22T04:05:10.590Z,628.00
2024-03-22T04:06:10.635Z,634.00
2024-03-22T04:07:10.707Z,632.00
2024-03-22T04:08:10.731Z,634.00
2024-03-22T04:09:10.762Z,642.00
2024-03-22T04:10:10.841Z,650.00
2024-03-22T04:11:10.865Z,657.00
2024-03-22T04:12:10.929Z,666.00
2024-03-22T04:13:10.998Z,697.00
2024-03-22T04:14:11.046Z,732.00
2024-03-22T04:15:11.112Z,756.00
2024-03-22T04:16:11.244Z,769.00
2024-03-22T04:17:11.266Z,801.00
2024-03-22T04:18:11.328Z,822.00
2024-03-22T04:19:11.391Z,848.00
2024-03-22T04:20:11.469Z,847.00
2024-03-22T04:21:11.519Z,841.00
2024-03-22T04:22:11.598Z,824.00
2024-03-22T04:23:11.643Z,814.00
2024-03-22T04:24:11.715Z,809.00
2024-03-22T04:25:11.774Z,788.00
2024-03-22T04:26:11.823Z,760.00
2024-03-22T04:27:11.854Z,750.00
2024-03-22T04:28:11.902Z,743.00
2024-03-22T04:29:11.943Z,741.00
2024-03-22T04:30:11.998Z,741.00
2024-03-22T04:31:12.056Z,745.00
2024-03-22T04:32:12.113Z,751.00
2024-03-22T04:33:12.156Z,767.00
2024-03-22T04:34:12.219Z,777.00
2024-03-22T04:35:12.279Z,774.00
2024-03-22T04:36:12.350Z,793.00
2024-03-22T04:37:19.723Z,600.00
2024-03-22T04:38:20.741Z,600.00
2024-03-22T04:39:20.764Z,600.00
2024-03-22T04:40:20.806Z,600.00
2024-03-22T04:41:20.852Z,600.00
2024-03-22T04:42:20.852Z,605.00
2024-03-22T04:43:20.880Z,616.00
2024-03-22T04:44:20.923Z,617.00
2024-03-22T04:45:20.949Z,625.00
2024-03-22T04:46:20.990Z,627.00
2024-03-22T04:47:21.024Z,625.00
2024-03-22T04:48:21.040Z,628.00
2024-03-22T04:49:21.079Z,636.00
2024-03-22T04:50:21.095Z,636.00
2024-03-22T04:51:21.136Z,646.00
2024-03-22T04:52:21.174Z,645.00
2024-03-22T04:53:21.193Z,650.00
2024-03-22T04:54:21.238Z,658.00
2024-03-22T04:55:21.282Z,669.00
2024-03-22T04:56:21.297Z,679.00
2024-03-22T04:57:21.352Z,697.00
2024-03-22T04:58:39.194Z,600.00
2024-03-22T04:59:40.183Z,600.00
2024-03-22T05:00:40.197Z,600.00
2024-03-22T05:01:40.210Z,600.00
2024-03-22T05:02:40.222Z,600.00
2024-03-22T05:03:40.239Z,601.00
2024-03-22T05:04:40.243Z,603.00
2024-03-22T05:05:40.256Z,601.00
2024-03-22T05:06:40.259Z,606.00
2024-03-22T05:07:40.270Z,602.00
2024-03-22T05:08:40.352Z,601.00
2024-03-22T05:09:40.317Z,605.00
2024-03-22T05:10:40.324Z,602.00
2024-03-22T05:11:40.332Z,602.00
2024-03-22T05:12:40.369Z,608.00
2024-03-22T05:13:40.372Z,608.00
2024-03-22T05:14:40.397Z,612.00
2024-03-22T05:15:40.389Z,610.00
2024-03-22T05:16:40.398Z,607.00
2024-03-22T05:17:40.401Z,606.00
2024-03-22T05:18:40.425Z,603.00
2024-03-22T05:19:40.434Z,600.00
2024-03-22T05:20:40.488Z,601.00
2024-03-22T05:21:40.467Z,603.00
2024-03-22T05:22:40.492Z,600.00
2024-03-22T05:23:40.529Z,600.00
2024-03-22T05:24:40.589Z,606.00
2024-03-22T05:25:40.694Z,611.00
2024-03-22T05:26:40.739Z,615.00
2024-03-22T05:27:40.816Z,623.00
2024-03-22T05:28:40.881Z,632.00
2024-03-22T05:29:41.044Z,635.00
2024-03-22T05:30:41.022Z,644.00
2024-03-22T05:31:41.101Z,651.00
2024-03-22T05:32:41.234Z,651.00
2024-03-22T05:33:41.829Z,645.00
2024-03-22T05:34:41.350Z,651.00
2024-03-22T05:35:41.420Z,655.00
2024-03-22T05:36:41.484Z,656.00
2024-03-22T05:37:41.564Z,654.00
2024-03-22T05:38:41.609Z,652.00
2024-03-22T05:39:41.692Z,645.00
2024-03-22T05:40:41.719Z,640.00
2024-03-22T05:41:41.811Z,642.00
2024-03-22T05:42:41.835Z,644.00
2024-03-22T05:43:41.899Z,637.00
2024-03-22T05:44:42.030Z,621.00
2024-03-22T05:45:42.055Z,610.00
2024-03-22T05:46:42.129Z,604.00
2024-03-22T05:47:42.235Z,602.00
2024-03-22T05:48:42.307Z,608.00
2024-03-22T05:49:42.405Z,609.00
2024-03-22T05:50:42.521Z,610.00
2024-03-22T05:51:42.643Z,613.00
2024-03-22T05:52:42.687Z,612.00
2024-03-22T05:53:42.832Z,613.00
2024-03-22T05:54:42.852Z,611.00
2024-03-22T05:55:42.942Z,615.00
2024-03-22T05:56:43.028Z,615.00
2024-03-22T05:57:43.096Z,613.00
2024-03-22T05:58:43.188Z,613.00
2024-03-22T05:59:43.257Z,611.00
2024-03-22T06:00:43.561Z,617.00
2024-03-22T06:01:43.399Z,618.00
2024-03-22T06:02:43.466Z,621.00
2024-03-22T06:03:43.512Z,619.00
2024-03-22T06:04:45.986Z,617.00
2024-03-22T06:05:43.620Z,617.00
2024-03-22T06:06:43.612Z,617.00
2024-03-22T06:07:43.649Z,600.00
2024-03-22T06:08:43.671Z,583.00
2024-03-22T06:09:43.668Z,580.00
2024-03-22T06:10:43.671Z,607.00
2024-03-22T06:11:43.705Z,603.00
2024-03-22T06:12:43.710Z,600.00
2024-03-22T06:13:43.734Z,600.00
2024-03-22T06:14:43.777Z,606.00
2024-03-22T06:15:43.762Z,605.00
2024-03-22T06:16:43.779Z,604.00
2024-03-22T06:17:43.779Z,606.00
2024-03-22T06:18:43.782Z,609.00
2024-03-22T06:19:43.817Z,606.00
2024-03-22T06:20:43.830Z,602.00
2024-03-22T06:21:43.858Z,604.00
2024-03-22T06:22:43.832Z,600.00
2024-03-22T06:23:43.927Z,600.00
2024-03-22T06:24:43.908Z,603.00
2024-03-22T06:25:43.887Z,600.00
2024-03-22T06:26:46.072Z,605.00
2024-03-22T06:27:45.732Z,604.00
2024-03-22T06:28:43.940Z,604.00
2024-03-22T06:29:43.961Z,606.00
2024-03-22T06:30:43.943Z,610.00
2024-03-22T06:31:43.953Z,613.00
2024-03-22T06:32:44.346Z,614.00
2024-03-22T06:33:44.009Z,612.00
2024-03-22T06:34:44.017Z,606.00
2024-03-22T06:35:44.015Z,602.00
2024-03-22T06:36:44.317Z,601.00
2024-03-22T06:37:44.055Z,600.00
2024-03-22T06:38:44.059Z,602.00
2024-03-22T06:39:44.082Z,605.00
2024-03-22T06:40:44.073Z,600.00
2024-03-22T06:41:44.129Z,602.00
2024-03-22T06:42:44.107Z,603.00
2024-03-22T06:43:44.108Z,602.00
2024-03-22T06:44:44.123Z,602.00
2024-03-22T06:45:44.146Z,606.00
2024-03-22T06:46:44.157Z,602.00
2024-03-22T06:47:44.414Z,607.00
2024-03-22T06:48:44.205Z,612.00
2024-03-22T06:49:44.190Z,617.00
2024-03-22T06:50:44.219Z,617.00
2024-03-22T06:51:44.236Z,614.00
2024-03-22T06:52:44.330Z,617.00
2024-03-22T06:53:44.275Z,614.00
2024-03-22T06:54:44.270Z,618.00
2024-03-22T06:55:44.329Z,622.00
2024-03-22T06:56:44.378Z,621.00
2024-03-22T06:57:44.832Z,626.00
2024-03-22T06:58:44.486Z,624.00
2024-03-22T06:59:47.759Z,616.00
2024-03-22T07:00:44.554Z,616.00
2024-03-22T07:01:44.546Z,618.00
2024-03-22T07:02:44.834Z,621.00
2024-03-22T07:03:45.030Z,628.00
2024-03-22T07:04:44.859Z,637.00
2024-03-22T07:05:44.562Z,626.00
2024-03-22T07:06:44.832Z,624.00
2024-03-22T07:07:44.554Z,622.00
2024-03-22T07:08:44.623Z,630.00
2024-03-22T07:09:44.890Z,626.00
2024-03-22T07:10:44.574Z,627.00
2024-03-22T07:11:45.074Z,615.00
2024-03-22T07:12:44.659Z,610.00
2024-03-22T07:13:44.590Z,606.00
2024-03-22T07:14:44.630Z,600.00
2024-03-22T07:15:44.646Z,604.00
2024-03-22T07:16:44.826Z,600.00
2024-03-22T07:17:44.778Z,602.00
2024-03-22T07:18:44.867Z,599.00
2024-03-22T07:19:44.680Z,601.00
2024-03-22T07:20:44.907Z,600.00
2024-03-22T07:21:44.859Z,601.00
2024-03-22T07:22:44.772Z,611.00
2024-03-22T07:23:44.735Z,606.00
2024-03-22T07:24:44.753Z,616.00
2024-03-22T07:25:44.803Z,607.00
2024-03-22T07:26:44.828Z,606.00
2024-03-22T07:27:44.855Z,603.00
2024-03-22T07:28:45.220Z,605.00
2024-03-22T07:29:45.184Z,607.00
2024-03-22T07:30:45.034Z,608.00
2024-03-22T07:31:45.916Z,615.00
2024-03-22T07:32:45.639Z,619.00
2024-03-22T07:33:45.509Z,621.00
2024-03-22T07:34:45.501Z,623.00
2024-03-22T07:35:45.542Z,630.00
2024-03-22T07:36:45.876Z,623.00
2024-03-22T07:37:45.630Z,620.00
2024-03-22T07:38:45.687Z,623.00
2024-03-22T07:39:45.256Z,624.00
2024-03-22T07:40:45.318Z,629.00
2024-03-22T07:41:45.994Z,634.00
2024-03-22T07:42:45.526Z,650.00
2024-03-22T07:43:45.573Z,651.00
2024-03-22T07:44:45.899Z,655.00
2024-03-22T07:45:46.072Z,639.00
2024-03-22T07:46:46.097Z,607.00
2024-03-22T07:47:45.622Z,597.00
2024-03-22T07:48:45.607Z,602.00
2024-03-22T07:49:45.604Z,600.00
2024-03-22T07:50:45.638Z,600.00
2024-03-22T07:51:45.843Z,600.00
2024-03-22T07:52:45.901Z,600.00
2024-03-22T07:53:45.832Z,603.00
2024-03-22T07:54:45.768Z,614.00
2024-03-22T07:55:45.866Z,623.00
2024-03-22T07:56:46.000Z,612.00
2024-03-22T07:57:46.265Z,612.00
2024-03-22T07:58:45.920Z,610.00
2024-03-22T07:59:45.992Z,608.00
2024-03-22T08:00:45.992Z,604.00
2024-03-22T08:01:46.403Z,607.00
2024-03-22T08:02:46.003Z,618.00
2024-03-22T08:03:46.437Z,624.00
2024-03-22T08:04:46.422Z,614.00
2024-03-22T08:05:46.887Z,600.00
2024-03-22T08:06:46.913Z,601.00
2024-03-22T08:07:46.345Z,602.00
2024-03-22T08:08:46.168Z,605.00
2024-03-22T08:09:46.222Z,602.00
2024-03-22T08:10:46.277Z,607.00
2024-03-22T08:11:46.229Z,600.00
2024-03-22T08:12:46.294Z,600.00
2024-03-22T08:13:46.324Z,601.00
2024-03-22T08:14:46.356Z,610.00
2024-03-22T08:15:46.394Z,613.00
2024-03-22T08:16:46.399Z,613.00
2024-03-22T08:17:46.434Z,600.00
2024-03-22T08:18:46.440Z,600.00
2024-03-22T08:19:46.458Z,609.00
2024-03-22T08:20:46.709Z,621.00
2024-03-22T08:21:46.584Z,628.00
2024-03-22T08:22:46.605Z,633.00
2024-03-22T08:23:46.914Z,629.00
2024-03-22T08:24:46.852Z,609.00
2024-03-22T08:25:46.735Z,600.00
2024-03-22T08:26:46.725Z,600.00
2024-03-22T08:27:59.707Z,612.00
2024-03-22T08:28:47.119Z,612.00
2024-03-22T08:29:47.853Z,612.00
2024-03-22T08:30:46.702Z,600.00
2024-03-22T08:31:46.859Z,579.00
2024-03-22T08:32:46.599Z,575.00
2024-03-22T08:33:46.861Z,558.00
2024-03-22T08:34:46.629Z,550.00
2024-03-22T08:35:46.880Z,579.00
2024-03-22T08:36:46.540Z,598.00
2024-03-22T08:37:46.530Z,600.00
2024-03-22T08:38:46.528Z,600.00
2024-03-22T08:39:46.561Z,600.00
2024-03-22T08:40:46.501Z,601.00
2024-03-22T08:41:47.010Z,607.00
2024-03-22T08:42:46.459Z,623.00
2024-03-22T08:43:45.856Z,625.00
2024-03-22T08:44:46.769Z,614.00
2024-03-22T08:45:46.435Z,1157.00
2024-03-22T08:46:46.899Z,943.00
2024-03-22T08:47:46.429Z,779.00
2024-03-22T08:48:46.409Z,706.00
2024-03-22T08:49:46.898Z,676.00
2024-03-22T08:50:46.428Z,663.00
2024-03-22T08:51:46.454Z,665.00
2024-03-22T08:52:46.463Z,651.00
2024-03-22T08:53:46.610Z,649.00
2024-03-22T08:54:46.852Z,618.00
2024-03-22T08:55:46.520Z,599.00
2024-03-22T08:56:46.884Z,600.00
2024-03-22T08:57:54.238Z,609.00
2024-03-22T08:58:46.547Z,609.00
2024-03-22T08:59:46.890Z,609.00
2024-03-22T09:00:46.498Z,587.00
2024-03-22T09:01:46.507Z,566.00
2024-03-22T09:02:46.482Z,554.00
2024-03-22T09:03:46.481Z,588.00
2024-03-22T09:04:46.885Z,601.00
2024-03-22T09:05:53.009Z,600.00
2024-03-22T09:06:46.402Z,600.00
2024-03-22T09:07:47.350Z,598.00
2024-03-22T09:08:46.536Z,584.00
2024-03-22T09:09:46.867Z,580.00
2024-03-22T09:10:46.628Z,578.00
2024-03-22T09:11:46.556Z,601.00
2024-03-22T09:12:46.584Z,608.00
2024-03-22T09:13:46.561Z,619.00
2024-03-22T09:14:46.860Z,616.00
2024-03-22T09:15:46.925Z,608.00
2024-03-22T09:16:46.565Z,622.00
2024-03-22T09:17:46.862Z,639.00
2024-03-22T09:18:46.521Z,636.00
2024-03-22T09:19:46.519Z,645.00
2024-03-22T09:20:46.559Z,652.00
2024-03-22T09:21:46.565Z,641.00
2024-03-22T09:22:47.854Z,627.00
2024-03-22T09:23:46.632Z,628.00
2024-03-22T09:24:46.541Z,627.00
2024-03-22T09:25:48.409Z,646.00
2024-03-22T09:26:46.867Z,655.00
2024-03-22T09:27:46.903Z,678.00
2024-03-22T09:28:46.893Z,710.00
2024-03-22T09:29:46.445Z,735.00
2024-03-22T09:30:56.463Z,774.00
2024-03-22T09:31:46.630Z,775.00
2024-03-22T09:32:46.361Z,785.00
2024-03-22T09:33:46.336Z,797.00
2024-03-22T09:34:46.297Z,822.00
2024-03-22T09:35:46.311Z,844.00
2024-03-22T09:36:46.230Z,833.00
2024-03-22T09:37:46.361Z,854.00
2024-03-22T09:38:46.146Z,900.00
2024-03-22T09:39:46.172Z,909.00
2024-03-22T09:40:46.150Z,905.00
2024-03-22T09:41:49.040Z,927.00
2024-03-22T09:42:46.369Z,929.00
2024-03-22T09:43:46.002Z,932.00
2024-03-22T09:44:49.194Z,928.00
2024-03-22T09:45:45.915Z,928.00
2024-03-22T09:46:45.891Z,928.00
2024-03-22T09:47:45.882Z,920.00
2024-03-22T09:48:45.818Z,919.00
2024-03-22T09:49:45.822Z,917.00
2024-03-22T09:50:45.778Z,960.00
2024-03-22T09:51:45.697Z,973.00
2024-03-22T09:52:45.878Z,944.00
2024-03-22T09:53:47.096Z,936.00
2024-03-22T09:54:45.568Z,936.00
2024-03-22T09:55:45.529Z,861.00
2024-03-22T09:56:45.493Z,827.00
2024-03-22T09:57:45.462Z,794.00
2024-03-22T09:58:45.397Z,788.00
2024-03-22T09:59:46.338Z,758.00
2024-03-22T10:00:45.408Z,814.00
2024-03-22T10:01:45.352Z,836.00
2024-03-22T10:02:45.378Z,841.00
2024-03-22T10:03:45.181Z,858.00
2024-03-22T10:04:45.158Z,865.00
2024-03-22T10:05:46.798Z,826.00
2024-03-22T10:06:45.078Z,770.00
2024-03-22T10:07:45.381Z,735.00
2024-03-22T10:08:45.034Z,735.00
2024-03-22T10:09:45.039Z,676.00
2024-03-22T10:10:44.976Z,649.00
2024-03-22T10:11:46.605Z,652.00
2024-03-22T10:12:46.395Z,667.00
2024-03-22T10:13:45.008Z,641.00
2024-03-22T10:14:45.404Z,632.00
2024-03-22T10:15:45.087Z,637.00
2024-03-22T10:16:45.111Z,626.00
2024-03-22T10:17:45.109Z,614.00
2024-03-22T10:18:45.376Z,600.00
2024-03-22T10:19:45.079Z,597.00
2024-03-22T10:20:45.027Z,598.00
2024-03-22T10:21:46.003Z,601.00
2024-03-22T10:22:45.516Z,605.00
2024-03-22T10:23:44.920Z,605.00
2024-03-22T10:24:44.895Z,611.00
2024-03-22T10:25:44.837Z,597.00
2024-03-22T10:26:44.852Z,608.00
2024-03-22T10:27:44.834Z,617.00
2024-03-22T10:28:44.976Z,603.00
2024-03-22T10:29:46.452Z,599.00
2024-03-22T10:30:44.759Z,597.00
2024-03-22T10:31:44.731Z,600.00
2024-03-22T10:32:45.002Z,604.00
2024-03-22T10:33:44.710Z,605.00
2024-03-22T10:34:44.949Z,612.00
2024-03-22T10:35:44.597Z,647.00
2024-03-22T10:36:44.482Z,741.00
2024-03-22T10:37:47.900Z,842.00
2024-03-22T10:38:44.407Z,845.00
2024-03-22T10:39:44.356Z,821.00
2024-03-22T10:40:44.369Z,714.00
2024-03-22T10:41:44.980Z,644.00
2024-03-22T10:42:44.457Z,630.00
2024-03-22T10:43:45.843Z,628.00
2024-03-22T10:44:44.432Z,630.00
2024-03-22T10:45:44.178Z,646.00
2024-03-22T10:46:44.012Z,670.00
2024-03-22T10:47:44.033Z,712.00
2024-03-22T10:48:43.942Z,663.00
2024-03-22T10:49:44.662Z,698.00
2024-03-22T10:50:43.837Z,699.00
2024-03-22T10:51:43.794Z,705.00
2024-03-22T10:52:43.717Z,645.00
2024-03-22T10:53:43.669Z,609.00
2024-03-22T10:54:43.930Z,627.00
2024-03-22T10:55:43.619Z,614.00
2024-03-22T10:56:43.564Z,600.00
2024-03-22T10:57:44.461Z,599.00
2024-03-22T10:58:43.504Z,615.00
2024-03-22T10:59:43.384Z,600.00
2024-03-22T11:00:45.242Z,607.00
2024-03-22T11:01:43.257Z,607.00
2024-03-22T11:02:43.247Z,607.00
2024-03-22T11:03:43.256Z,612.00
2024-03-22T11:04:43.449Z,628.00
2024-03-22T11:05:43.135Z,636.00
2024-03-22T11:06:43.005Z,623.00
2024-03-22T11:07:42.960Z,610.00
2024-03-22T11:08:42.884Z,613.00
2024-03-22T11:09:42.891Z,607.00
2024-03-22T11:10:42.801Z,621.00
2024-03-22T11:11:42.709Z,613.00
2024-03-22T11:12:44.167Z,622.00
2024-03-22T11:13:42.901Z,620.00
2024-03-22T11:14:42.901Z,617.00
2024-03-22T11:15:41.738Z,629.00
2024-03-22T11:16:42.786Z,626.00
2024-03-22T11:17:42.724Z,619.00
2024-03-22T11:18:42.694Z,617.00
2024-03-22T11:19:43.008Z,617.00
2024-03-22T11:20:44.556Z,639.00
2024-03-22T11:21:42.679Z,639.00
2024-03-22T11:22:42.862Z,641.00
2024-03-22T11:23:42.612Z,640.00
2024-03-22T11:24:42.449Z,613.00
2024-03-22T11:25:43.031Z,614.00
2024-03-22T11:26:44.688Z,630.00
2024-03-22T11:27:42.279Z,631.00
2024-03-22T11:28:42.275Z,635.00
2024-03-22T11:29:42.146Z,641.00
2024-03-22T11:30:42.410Z,657.00
2024-03-22T11:31:42.029Z,708.00
2024-03-22T11:32:41.979Z,724.00
2024-03-22T11:33:41.866Z,685.00
2024-03-22T11:34:42.052Z,646.00
2024-03-22T11:35:41.760Z,643.00
2024-03-22T11:36:41.736Z,643.00
2024-03-22T11:37:41.604Z,643.00
2024-03-22T11:38:41.582Z,601.00
2024-03-22T11:39:41.461Z,601.00
2024-03-22T11:40:43.301Z,612.00
2024-03-22T11:41:41.312Z,611.00
2024-03-22T11:42:41.991Z,589.00
2024-03-22T11:43:41.593Z,580.00
2024-03-22T11:44:41.622Z,588.00
2024-03-22T11:45:40.714Z,593.00
2024-03-22T11:46:41.342Z,600.00
2024-03-22T11:47:41.683Z,600.00
2024-03-22T11:48:41.215Z,597.00
2024-03-22T11:49:41.343Z,611.00
2024-03-22T11:50:41.081Z,598.00
2024-03-22T11:51:40.946Z,603.00
2024-03-22T11:52:41.030Z,605.00
2024-03-22T11:53:40.880Z,600.00
2024-03-22T11:54:40.762Z,600.00
2024-03-22T11:55:40.893Z,626.00
2024-03-22T11:56:41.618Z,627.00
2024-03-22T11:57:40.043Z,660.00
2024-03-22T11:58:39.951Z,645.00
2024-03-22T11:59:39.856Z,610.00
2024-03-22T12:01:03.021Z,597.00
2024-03-22T12:01:39.794Z,584.00
2024-03-22T12:02:39.640Z,584.00
2024-03-22T12:03:39.602Z,589.00
2024-03-22T12:04:40.465Z,603.00
2024-03-22T12:05:39.975Z,611.00
2024-03-22T12:06:39.345Z,611.00
2024-03-22T12:07:39.245Z,623.00
2024-03-22T12:08:39.162Z,643.00
2024-03-22T12:09:39.070Z,655.00
2024-03-22T12:10:39.408Z,658.00
2024-03-22T12:11:38.942Z,641.00
2024-03-22T12:12:38.797Z,666.00
2024-03-22T12:13:38.731Z,677.00
2024-03-22T12:14:38.713Z,730.00
2024-03-22T12:15:38.691Z,782.00
2024-03-22T12:16:38.643Z,845.00
2024-03-22T12:17:38.616Z,890.00
2024-03-22T12:18:38.583Z,896.00
2024-03-22T12:19:38.612Z,940.00
2024-03-22T12:20:39.218Z,902.00
2024-03-22T12:21:38.472Z,807.00
2024-03-22T12:22:38.916Z,709.00
2024-03-22T12:23:38.429Z,681.00
2024-03-22T12:24:38.413Z,676.00
2024-03-22T12:25:38.373Z,681.00
2024-03-22T12:26:38.423Z,663.00
2024-03-22T12:27:39.798Z,667.00
2024-03-22T12:28:38.161Z,658.00
2024-03-22T12:29:38.111Z,673.00
2024-03-22T12:31:09.843Z,619.00
2024-03-22T12:31:37.955Z,619.00
2024-03-22T12:32:37.884Z,623.00
2024-03-22T12:33:37.915Z,625.00
2024-03-22T12:34:37.689Z,646.00
2024-03-22T12:35:37.612Z,686.00
2024-03-22T12:36:37.518Z,723.00
2024-03-22T12:37:37.952Z,742.00
2024-03-22T12:38:37.350Z,790.00
2024-03-22T12:39:37.280Z,784.00
2024-03-22T12:40:37.519Z,705.00
2024-03-22T12:41:37.252Z,644.00
2024-03-22T12:42:37.225Z,630.00
2024-03-22T12:43:43.722Z,648.00
2024-03-22T12:44:37.117Z,648.00
2024-03-22T12:45:37.043Z,652.00
2024-03-22T12:46:36.997Z,658.00
2024-03-22T12:47:36.874Z,661.00
2024-03-22T12:48:36.795Z,688.00
2024-03-22T12:49:36.709Z,726.00
2024-03-22T12:50:36.602Z,779.00
2024-03-22T12:51:36.955Z,808.00
2024-03-22T12:52:36.436Z,787.00
2024-03-22T12:53:36.360Z,660.00
2024-03-22T12:54:36.266Z,629.00
2024-03-22T12:55:36.172Z,614.00
2024-03-22T12:56:36.126Z,621.00
2024-03-22T12:57:35.993Z,618.00
2024-03-22T12:58:35.985Z,603.00
2024-03-22T12:59:35.808Z,600.00
2024-03-22T13:00:35.706Z,600.00
2024-03-22T13:01:35.623Z,600.00
2024-03-22T13:02:35.950Z,601.00
2024-03-22T13:03:35.427Z,612.00
2024-03-22T13:04:35.330Z,613.00
2024-03-22T13:05:35.226Z,618.00
2024-03-22T13:06:35.116Z,624.00
2024-03-22T13:07:35.041Z,623.00
2024-03-22T13:08:34.946Z,613.00
2024-03-22T13:09:34.869Z,603.00
2024-03-22T13:10:34.742Z,628.00
2024-03-22T13:11:34.642Z,620.00
2024-03-22T13:12:34.579Z,644.00
2024-03-22T13:13:34.450Z,651.00
2024-03-22T13:14:34.373Z,625.00
2024-03-22T13:15:34.265Z,636.00
2024-03-22T13:16:34.183Z,642.00
2024-03-22T13:17:34.083Z,631.00
2024-03-22T13:18:33.969Z,633.00
2024-03-22T13:19:33.892Z,625.00
2024-03-22T13:20:33.781Z,649.00